Williamstown, MA

6:41 PM EDT on July 25, 2016 (GMT -0400)
Williams College '66 Environmental Center | | Change Station

Elev 682 ft 42.71 °N, 73.20 °W | Updated 3 seconds ago

Overcast
Overcast
79.4 °F
Feels Like 83 °F
N
0.0
Wind Variable Wind from South
Gusts 1.0 mph

Today
High -- | Low -- °F
--% Chance of Precip.
Yesterday
High -- | Low -- °F
Precip. -- in
Pressure 29.84 in
Visibility 10.0 miles
Clouds Few 8500 ft
Scattered Clouds 11000 ft
Heat Index 83 °F
Dew Point 72 °F
Humidity 78%
Rainfall 0.00 in
Snow Depth Not available.
5:37 AM 8:20 PM
Waning Gibbous, 61% visible
METAR KAQW 252152Z AUTO 27008KT 10SM -RA FEW085 SCT110 27/20 A2984 RMK AO2 RAB52 SLP103 P0000 T02720200
Pressure 29.84 in
Visibility 10.0 miles
Clouds Few 8500 ft
Scattered Clouds 11000 ft
Heat Index 83 °F
Dew Point 72 °F
Humidity 78%
Rainfall 0.00 in
Snow Depth Not available.
5:37 AM 8:20 PM
Waning Gibbous, 61% visible
METAR KAQW 252152Z AUTO 27008KT 10SM -RA FEW085 SCT110 27/20 A2984 RMK AO2 RAB52 SLP103 P0000 T02720200
Record highs are possible for parts of the Northeast Monday and Tuesday, as parts of the central U.S. take a little breather from the worst of summer's dog day heat.

Expansive high pressure in the upper atmosphere will focus on parts of the East and West this week, sending heat indices well into the triple digits from the Mid-Atlantic states into the South.

10-Day Weather Forecast

Almanac

Astronomy

Jul. 25, 2016 Rise Set
Actual Time
Civil Twilight
Nautical Twilight
Astronomical Twilight
Moon
Length of Visible Light
Length of Day
Tomorrow will be .
, % of the Moon is Illuminated

Today's Extremes

State Highs State Lows

Community

WunderPhotos

Upload Photos

1,927,436 photos uploaded!

WunderBlog® & News

Nearby

Air Quality

  Air Quality AQ Index Pollutant
Not available.

Snow Depth

Station Depth Elevation

Earthquake Activity

City Distance Mag. Time & Date
Minimum magnitude displayed is 2.5.

Coastal Water Temperatures

Place Temperature

Stations

Nearby Weather Stations

Station Location Temp. Windchill Dew Point Humidity Wind Precip. Elev Updated Type
                   

Watches & Warnings

There are currently no watches in effect.